sensor_id;sensor_type;location;lat;lon;timestamp;pressure;altitude;pressure_sealevel;temperature;humidity
6433;BME280;3249;42.690;23.260;2023-02-19T00:00:17;94632.63;;;5.61;100.00
6433;BME280;3249;42.690;23.260;2023-02-19T00:02:47;94649.28;;;5.72;99.32
6433;BME280;3249;42.690;23.260;2023-02-19T00:05:17;94639.88;;;5.43;100.00
6433;BME280;3249;42.690;23.260;2023-02-19T00:07:49;94622.69;;;5.52;100.00
6433;BME280;3249;42.690;23.260;2023-02-19T00:10:18;94637.56;;;5.77;99.54
6433;BME280;3249;42.690;23.260;2023-02-19T00:12:47;94625.53;;;5.86;98.74
6433;BME280;3249;42.690;23.260;2023-02-19T00:15:17;94619.00;;;5.40;100.00
6433;BME280;3249;42.690;23.260;2023-02-19T00:17:45;94601.59;;;5.43;100.00
6433;BME280;3249;42.690;23.260;2023-02-19T00:20:17;94620.22;;;5.58;100.00
6433;BME280;3249;42.690;23.260;2023-02-19T00:22:49;94608.69;;;5.77;100.00
6433;BME280;3249;42.690;23.260;2023-02-19T00:25:18;94614.75;;;5.76;100.00
6433;BME280;3249;42.690;23.260;2023-02-19T00:27:47;94608.69;;;5.62;100.00
6433;BME280;3249;42.690;23.260;2023-02-19T00:30:16;94611.88;;;5.64;100.00
6433;BME280;3249;42.690;23.260;2023-02-19T00:32:49;94603.69;;;5.40;100.00
6433;BME280;3249;42.690;23.260;2023-02-19T00:35:20;94612.66;;;5.36;100.00
6433;BME280;3249;42.690;23.260;2023-02-19T00:37:52;94608.53;;;5.06;100.00
6433;BME280;3249;42.690;23.260;2023-02-19T00:40:21;94595.38;;;4.94;100.00
6433;BME280;3249;42.690;23.260;2023-02-19T00:42:54;94587.75;;;5.08;100.00
6433;BME280;3249;42.690;23.260;2023-02-19T00:45:24;94586.72;;;5.32;100.00
6433;BME280;3249;42.690;23.260;2023-02-19T00:47:54;94587.13;;;5.36;100.00
6433;BME280;3249;42.690;23.260;2023-02-19T00:50:24;94578.78;;;4.98;100.00
6433;BME280;3249;42.690;23.260;2023-02-19T00:52:56;94577.47;;;5.31;100.00
6433;BME280;3249;42.690;23.260;2023-02-19T00:55:25;94551.97;;;5.31;100.00
6433;BME280;3249;42.690;23.260;2023-02-19T00:57:54;94562.09;;;5.25;100.00
6433;BME280;3249;42.690;23.260;2023-02-19T01:00:23;94574.84;;;5.25;100.00
6433;BME280;3249;42.690;23.260;2023-02-19T01:02:52;94558.09;;;4.93;100.00
6433;BME280;3249;42.690;23.260;2023-02-19T01:05:24;94563.59;;;5.19;100.00
6433;BME280;3249;42.690;23.260;2023-02-19T01:07:56;94580.19;;;5.30;100.00
6433;BME280;3249;42.690;23.260;2023-02-19T01:10:25;94575.97;;;5.22;100.00
6433;BME280;3249;42.690;23.260;2023-02-19T01:12:54;94571.13;;;5.42;100.00
6433;BME280;3249;42.690;23.260;2023-02-19T01:15:23;94551.25;;;5.08;100.00
6433;BME280;3249;42.690;23.260;2023-02-19T01:17:52;94565.56;;;5.38;100.00
6433;BME280;3249;42.690;23.260;2023-02-19T01:20:21;94549.84;;;5.20;100.00
6433;BME280;3249;42.690;23.260;2023-02-19T01:22:51;94542.97;;;5.50;100.00
6433;BME280;3249;42.690;23.260;2023-02-19T01:25:23;94578.56;;;5.72;100.00
6433;BME280;3249;42.690;23.260;2023-02-19T01:27:52;94574.69;;;5.76;100.00
6433;BME280;3249;42.690;23.260;2023-02-19T01:30:21;94564.53;;;5.47;100.00
6433;BME280;3249;42.690;23.260;2023-02-19T01:32:51;94598.13;;;5.65;100.00
6433;BME280;3249;42.690;23.260;2023-02-19T01:35:20;94592.41;;;5.63;100.00
6433;BME280;3249;42.690;23.260;2023-02-19T01:37:49;94594.31;;;5.76;100.00
6433;BME280;3249;42.690;23.260;2023-02-19T01:40:18;94598.03;;;5.73;100.00
6433;BME280;3249;42.690;23.260;2023-02-19T01:42:50;94610.19;;;5.86;100.00
6433;BME280;3249;42.690;23.260;2023-02-19T01:45:23;94624.13;;;5.83;100.00
6433;BME280;3249;42.690;23.260;2023-02-19T01:48:02;94628.06;;;5.71;100.00
6433;BME280;3249;42.690;23.260;2023-02-19T01:50:36;94600.28;;;5.47;100.00
6433;BME280;3249;42.690;23.260;2023-02-19T01:53:08;94618.38;;;5.67;100.00
6433;BME280;3249;42.690;23.260;2023-02-19T01:55:39;94634.59;;;5.45;100.00
6433;BME280;3249;42.690;23.260;2023-02-19T01:58:11;94625.75;;;5.18;100.00
6433;BME280;3249;42.690;23.260;2023-02-19T02:00:40;94611.75;;;5.14;100.00
6433;BME280;3249;42.690;23.260;2023-02-19T02:03:09;94613.81;;;5.19;100.00
6433;BME280;3249;42.690;23.260;2023-02-19T02:05:49;94623.13;;;5.26;100.00
6433;BME280;3249;42.690;23.260;2023-02-19T02:08:20;94600.88;;;5.06;100.00
6433;BME280;3249;42.690;23.260;2023-02-19T02:11:02;94611.75;;;5.14;100.00
6433;BME280;3249;42.690;23.260;2023-02-19T02:13:36;94603.00;;;5.17;100.00
6433;BME280;3249;42.690;23.260;2023-02-19T02:16:15;94598.06;;;5.30;100.00
6433;BME280;3249;42.690;23.260;2023-02-19T02:18:54;94606.06;;;5.12;100.00
6433;BME280;3249;42.690;23.260;2023-02-19T02:21:52;94611.25;;;5.19;100.00
6433;BME280;3249;42.690;23.260;2023-02-19T02:24:50;94604.13;;;5.14;100.00
6433;BME280;3249;42.690;23.260;2023-02-19T02:27:35;94612.41;;;5.16;100.00
6433;BME280;3249;42.690;23.260;2023-02-19T02:30:20;94618.03;;;5.26;100.00
6433;BME280;3249;42.690;23.260;2023-02-19T02:32:56;94618.47;;;5.15;100.00
6433;BME280;3249;42.690;23.260;2023-02-19T02:35:34;94617.84;;;5.13;100.00
6433;BME280;3249;42.690;23.260;2023-02-19T02:38:21;94619.72;;;5.19;100.00
6433;BME280;3249;42.690;23.260;2023-02-19T02:40:53;94630.09;;;5.18;100.00
6433;BME280;3249;42.690;23.260;2023-02-19T02:43:24;94624.34;;;5.01;100.00
6433;BME280;3249;42.690;23.260;2023-02-19T02:45:56;94627.78;;;5.08;100.00
6433;BME280;3249;42.690;23.260;2023-02-19T02:48:34;94635.78;;;5.05;100.00
6433;BME280;3249;42.690;23.260;2023-02-19T02:51:13;94632.09;;;5.22;100.00
6433;BME280;3249;42.690;23.260;2023-02-19T02:54:07;94636.44;;;5.22;100.00
6433;BME280;3249;42.690;23.260;2023-02-19T02:56:53;94627.38;;;5.19;100.00
6433;BME280;3249;42.690;23.260;2023-02-19T02:59:24;94617.59;;;5.23;100.00
6433;BME280;3249;42.690;23.260;2023-02-19T03:01:59;94635.88;;;5.26;100.00
6433;BME280;3249;42.690;23.260;2023-02-19T03:04:43;94629.19;;;5.11;100.00
6433;BME280;3249;42.690;23.260;2023-02-19T03:07:30;94631.22;;;5.15;100.00
6433;BME280;3249;42.690;23.260;2023-02-19T03:10:02;94637.09;;;5.01;100.00
6433;BME280;3249;42.690;23.260;2023-02-19T03:12:33;94639.84;;;5.14;100.00
6433;BME280;3249;42.690;23.260;2023-02-19T03:15:16;94637.31;;;5.29;100.00
6433;BME280;3249;42.690;23.260;2023-02-19T03:18:04;94625.75;;;5.18;100.00
6433;BME280;3249;42.690;23.260;2023-02-19T03:20:51;94630.78;;;5.26;100.00
6433;BME280;3249;42.690;23.260;2023-02-19T03:23:26;94640.38;;;5.24;100.00
6433;BME280;3249;42.690;23.260;2023-02-19T03:26:14;94640.88;;;5.05;100.00
6433;BME280;3249;42.690;23.260;2023-02-19T03:28:51;94651.19;;;5.12;100.00
6433;BME280;3249;42.690;23.260;2023-02-19T03:31:37;94657.91;;;4.90;100.00
6433;BME280;3249;42.690;23.260;2023-02-19T03:34:13;94656.44;;;5.10;100.00
6433;BME280;3249;42.690;23.260;2023-02-19T03:36:47;94668.19;;;5.19;100.00
6433;BME280;3249;42.690;23.260;2023-02-19T03:39:21;94672.69;;;5.46;98.44
6433;BME280;3249;42.690;23.260;2023-02-19T03:41:59;94655.97;;;5.44;98.27
6433;BME280;3249;42.690;23.260;2023-02-19T03:44:37;94675.53;;;5.37;100.00
6433;BME280;3249;42.690;23.260;2023-02-19T03:47:16;94671.75;;;5.62;96.84
6433;BME280;3249;42.690;23.260;2023-02-19T03:49:54;94664.44;;;5.44;97.91
6433;BME280;3249;42.690;23.260;2023-02-19T03:52:35;94672.88;;;5.59;95.74
6433;BME280;3249;42.690;23.260;2023-02-19T03:55:11;94677.28;;;5.36;96.48
6433;BME280;3249;42.690;23.260;2023-02-19T03:57:48;94675.25;;;5.46;96.01
6433;BME280;3249;42.690;23.260;2023-02-19T04:00:23;94678.34;;;5.42;96.57
6433;BME280;3249;42.690;23.260;2023-02-19T04:02:56;94652.47;;;5.45;94.01
6433;BME280;3249;42.690;23.260;2023-02-19T04:05:32;94684.25;;;5.71;92.77
6433;BME280;3249;42.690;23.260;2023-02-19T04:08:10;94697.28;;;5.76;92.29
6433;BME280;3249;42.690;23.260;2023-02-19T04:10:45;94691.75;;;5.87;91.53
6433;BME280;3249;42.690;23.260;2023-02-19T04:13:18;94692.25;;;5.97;90.24
6433;BME280;3249;42.690;23.260;2023-02-19T04:15:50;94696.16;;;5.93;90.70
6433;BME280;3249;42.690;23.260;2023-02-19T04:18:23;94695.94;;;6.09;88.96
6433;BME280;3249;42.690;23.260;2023-02-19T04:20:57;94696.13;;;6.08;88.28
6433;BME280;3249;42.690;23.260;2023-02-19T04:23:29;94700.13;;;6.10;88.12
6433;BME280;3249;42.690;23.260;2023-02-19T04:26:00;94698.22;;;6.19;87.44
6433;BME280;3249;42.690;23.260;2023-02-19T04:28:36;94698.31;;;6.25;86.66
6433;BME280;3249;42.690;23.260;2023-02-19T04:31:08;94697.53;;;6.25;85.96
6433;BME280;3249;42.690;23.260;2023-02-19T04:33:37;94697.34;;;6.26;86.15
6433;BME280;3249;42.690;23.260;2023-02-19T04:36:10;94703.00;;;6.22;86.40
6433;BME280;3249;42.690;23.260;2023-02-19T04:38:39;94708.53;;;6.25;86.76
6433;BME280;3249;42.690;23.260;2023-02-19T04:41:08;94706.25;;;6.30;86.66
6433;BME280;3249;42.690;23.260;2023-02-19T04:43:38;94704.03;;;6.27;86.70
6433;BME280;3249;42.690;23.260;2023-02-19T04:46:07;94703.16;;;6.20;86.68
6433;BME280;3249;42.690;23.260;2023-02-19T04:48:36;94715.59;;;6.23;86.95
6433;BME280;3249;42.690;23.260;2023-02-19T04:51:05;94713.41;;;6.20;87.04
6433;BME280;3249;42.690;23.260;2023-02-19T04:53:37;94715.06;;;6.13;87.45
6433;BME280;3249;42.690;23.260;2023-02-19T04:56:08;94721.41;;;6.17;87.23
6433;BME280;3249;42.690;23.260;2023-02-19T04:58:38;94723.38;;;6.15;86.93
6433;BME280;3249;42.690;23.260;2023-02-19T05:01:07;94734.38;;;6.16;87.29
6433;BME280;3249;42.690;23.260;2023-02-19T05:03:37;94693.16;;;5.90;87.09
6433;BME280;3249;42.690;23.260;2023-02-19T05:06:08;94718.53;;;6.06;87.02
6433;BME280;3249;42.690;23.260;2023-02-19T05:08:41;94717.03;;;6.11;87.04
6433;BME280;3249;42.690;23.260;2023-02-19T05:11:11;94723.97;;;6.17;85.72
6433;BME280;3249;42.690;23.260;2023-02-19T05:13:40;94696.84;;;6.02;85.10
6433;BME280;3249;42.690;23.260;2023-02-19T05:16:11;94707.88;;;6.02;85.43
6433;BME280;3249;42.690;23.260;2023-02-19T05:18:42;94724.50;;;6.13;85.52
6433;BME280;3249;42.690;23.260;2023-02-19T05:21:12;94744.41;;;6.17;85.22
6433;BME280;3249;42.690;23.260;2023-02-19T05:23:43;94739.56;;;6.22;85.04
6433;BME280;3249;42.690;23.260;2023-02-19T05:26:14;94734.25;;;6.24;85.77
6433;BME280;3249;42.690;23.260;2023-02-19T05:28:44;94732.06;;;6.35;84.40
6433;BME280;3249;42.690;23.260;2023-02-19T05:31:14;94739.97;;;6.40;84.42
6433;BME280;3249;42.690;23.260;2023-02-19T05:33:43;94733.59;;;6.51;83.60
6433;BME280;3249;42.690;23.260;2023-02-19T05:36:17;94738.94;;;6.70;83.53
6433;BME280;3249;42.690;23.260;2023-02-19T05:38:51;94746.56;;;6.49;84.75
6433;BME280;3249;42.690;23.260;2023-02-19T05:41:22;94755.03;;;6.85;83.24
6433;BME280;3249;42.690;23.260;2023-02-19T05:43:52;94754.44;;;6.83;82.85
6433;BME280;3249;42.690;23.260;2023-02-19T05:46:23;94746.09;;;6.96;81.82
6433;BME280;3249;42.690;23.260;2023-02-19T05:48:52;94757.75;;;6.98;82.13
6433;BME280;3249;42.690;23.260;2023-02-19T05:51:24;94745.22;;;7.10;80.65
6433;BME280;3249;42.690;23.260;2023-02-19T05:53:56;94742.13;;;7.14;80.97
6433;BME280;3249;42.690;23.260;2023-02-19T05:56:32;94748.81;;;7.36;80.57
6433;BME280;3249;42.690;23.260;2023-02-19T05:59:04;94759.19;;;7.49;80.71
6433;BME280;3249;42.690;23.260;2023-02-19T06:01:35;94752.84;;;7.73;79.13
6433;BME280;3249;42.690;23.260;2023-02-19T06:04:04;94775.69;;;8.02;77.72
6433;BME280;3249;42.690;23.260;2023-02-19T06:06:33;94780.84;;;8.08;76.79
6433;BME280;3249;42.690;23.260;2023-02-19T06:09:07;94789.63;;;8.54;74.67
6433;BME280;3249;42.690;23.260;2023-02-19T06:11:39;94780.84;;;8.76;73.12
6433;BME280;3249;42.690;23.260;2023-02-19T06:14:10;94797.50;;;9.06;71.52
6433;BME280;3249;42.690;23.260;2023-02-19T06:16:39;94793.59;;;9.23;70.39
6433;BME280;3249;42.690;23.260;2023-02-19T06:19:09;94796.00;;;9.44;68.14
6433;BME280;3249;42.690;23.260;2023-02-19T06:21:38;94800.75;;;9.61;66.03
6433;BME280;3249;42.690;23.260;2023-02-19T06:24:10;94798.19;;;9.74;64.41
6433;BME280;3249;42.690;23.260;2023-02-19T06:26:39;94800.56;;;9.82;63.91
6433;BME280;3249;42.690;23.260;2023-02-19T06:29:08;94804.72;;;9.96;61.82
6433;BME280;3249;42.690;23.260;2023-02-19T06:31:37;94787.88;;;9.93;60.75
6433;BME280;3249;42.690;23.260;2023-02-19T06:34:09;94807.69;;;10.12;60.12
6433;BME280;3249;42.690;23.260;2023-02-19T06:36:39;94793.84;;;10.07;61.02
6433;BME280;3249;42.690;23.260;2023-02-19T06:39:12;94805.53;;;10.16;60.27
6433;BME280;3249;42.690;23.260;2023-02-19T06:41:41;94806.91;;;10.18;60.24
6433;BME280;3249;42.690;23.260;2023-02-19T06:44:10;94803.91;;;10.15;59.78
6433;BME280;3249;42.690;23.260;2023-02-19T06:46:41;94802.13;;;10.22;59.21
6433;BME280;3249;42.690;23.260;2023-02-19T06:49:10;94803.91;;;10.28;58.84
6433;BME280;3249;42.690;23.260;2023-02-19T06:51:40;94802.72;;;10.30;58.61
6433;BME280;3249;42.690;23.260;2023-02-19T06:54:13;94812.00;;;10.38;57.62
6433;BME280;3249;42.690;23.260;2023-02-19T06:56:42;94804.88;;;10.40;56.94
6433;BME280;3249;42.690;23.260;2023-02-19T06:59:13;94809.59;;;10.43;57.04
6433;BME280;3249;42.690;23.260;2023-02-19T07:01:43;94791.59;;;10.36;56.22
6433;BME280;3249;42.690;23.260;2023-02-19T07:04:12;94792.66;;;10.22;58.02
6433;BME280;3249;42.690;23.260;2023-02-19T07:06:42;94820.34;;;10.33;59.73
6433;BME280;3249;42.690;23.260;2023-02-19T07:09:13;94817.50;;;10.54;58.39
6433;BME280;3249;42.690;23.260;2023-02-19T07:11:42;94807.69;;;10.12;60.11
6433;BME280;3249;42.690;23.260;2023-02-19T07:14:14;94805.31;;;9.85;61.59
6433;BME280;3249;42.690;23.260;2023-02-19T07:16:44;94817.97;;;9.86;61.98
6433;BME280;3249;42.690;23.260;2023-02-19T07:19:15;94817.56;;;9.89;60.08
6433;BME280;3249;42.690;23.260;2023-02-19T07:21:44;94786.16;;;9.68;61.17
6433;BME280;3249;42.690;23.260;2023-02-19T07:24:16;94795.00;;;9.98;60.63
6433;BME280;3249;42.690;23.260;2023-02-19T07:26:46;94784.34;;;9.88;60.33
6433;BME280;3249;42.690;23.260;2023-02-19T07:29:15;94791.47;;;10.18;59.10
6433;BME280;3249;42.690;23.260;2023-02-19T07:31:45;94811.00;;;10.39;58.23
6433;BME280;3249;42.690;23.260;2023-02-19T07:34:14;94783.28;;;10.47;59.50
6433;BME280;3249;42.690;23.260;2023-02-19T07:36:43;94799.28;;;10.56;57.96
6433;BME280;3249;42.690;23.260;2023-02-19T07:39:12;94793.31;;;10.62;58.61
6433;BME280;3249;42.690;23.260;2023-02-19T07:41:44;94795.22;;;10.86;57.94
6433;BME280;3249;42.690;23.260;2023-02-19T07:44:25;94793.38;;;10.99;55.03
6433;BME280;3249;42.690;23.260;2023-02-19T07:46:54;94770.59;;;10.96;55.05
6433;BME280;3249;42.690;23.260;2023-02-19T07:49:23;94794.44;;;11.23;54.67
6433;BME280;3249;42.690;23.260;2023-02-19T07:51:53;94785.91;;;10.85;56.47
6433;BME280;3249;42.690;23.260;2023-02-19T07:54:22;94789.53;;;11.15;55.43
6433;BME280;3249;42.690;23.260;2023-02-19T07:56:56;94798.16;;;11.33;54.80
6433;BME280;3249;42.690;23.260;2023-02-19T07:59:25;94792.69;;;11.48;54.60
6433;BME280;3249;42.690;23.260;2023-02-19T08:01:54;94796.03;;;11.55;54.58
6433;BME280;3249;42.690;23.260;2023-02-19T08:04:35;94792.09;;;11.46;52.15
6433;BME280;3249;42.690;23.260;2023-02-19T08:07:04;94795.06;;;11.80;49.91
6433;BME280;3249;42.690;23.260;2023-02-19T08:09:33;94799.91;;;11.95;47.86
6433;BME280;3249;42.690;23.260;2023-02-19T08:12:07;94797.56;;;12.11;46.97
6433;BME280;3249;42.690;23.260;2023-02-19T08:15:04;94795.88;;;12.23;45.61
6433;BME280;3249;42.690;23.260;2023-02-19T08:17:33;94797.03;;;12.27;45.49
6433;BME280;3249;42.690;23.260;2023-02-19T08:20:03;94801.41;;;12.27;45.33
6433;BME280;3249;42.690;23.260;2023-02-19T08:22:33;94808.75;;;12.30;45.27
6433;BME280;3249;42.690;23.260;2023-02-19T08:25:02;94798.91;;;12.38;45.28
6433;BME280;3249;42.690;23.260;2023-02-19T08:27:33;94800.66;;;12.44;44.99
6433;BME280;3249;42.690;23.260;2023-02-19T08:30:03;94793.47;;;12.46;45.33
6433;BME280;3249;42.690;23.260;2023-02-19T08:32:33;94807.09;;;12.53;46.17
6433;BME280;3249;42.690;23.260;2023-02-19T08:35:03;94802.16;;;12.52;46.29
6433;BME280;3249;42.690;23.260;2023-02-19T08:37:32;94803.88;;;12.58;45.56
6433;BME280;3249;42.690;23.260;2023-02-19T08:40:01;94799.88;;;12.62;45.47
6433;BME280;3249;42.690;23.260;2023-02-19T08:42:33;94803.31;;;12.74;45.45
6433;BME280;3249;42.690;23.260;2023-02-19T08:45:03;94781.19;;;12.60;44.98
6433;BME280;3249;42.690;23.260;2023-02-19T08:47:34;94792.69;;;12.82;44.54
6433;BME280;3249;42.690;23.260;2023-02-19T08:50:04;94793.16;;;12.90;45.03
6433;BME280;3249;42.690;23.260;2023-02-19T08:52:34;94787.91;;;12.97;44.70
6433;BME280;3249;42.690;23.260;2023-02-19T08:55:03;94780.91;;;13.04;45.76
6433;BME280;3249;42.690;23.260;2023-02-19T08:57:37;94780.97;;;13.15;44.80
6433;BME280;3249;42.690;23.260;2023-02-19T09:00:07;94780.28;;;13.20;45.06
6433;BME280;3249;42.690;23.260;2023-02-19T09:02:36;94758.47;;;13.16;44.37
6433;BME280;3249;42.690;23.260;2023-02-19T09:05:07;94758.34;;;13.11;44.07
6433;BME280;3249;42.690;23.260;2023-02-19T09:07:37;94769.81;;;13.15;45.53
6433;BME280;3249;42.690;23.260;2023-02-19T09:10:07;94775.09;;;13.08;45.92
6433;BME280;3249;42.690;23.260;2023-02-19T09:12:40;94755.53;;;12.94;46.51
6433;BME280;3249;42.690;23.260;2023-02-19T09:15:09;94744.97;;;12.96;46.71
6433;BME280;3249;42.690;23.260;2023-02-19T09:17:39;94755.63;;;13.06;47.50
6433;BME280;3249;42.690;23.260;2023-02-19T09:20:08;94755.97;;;13.09;48.16
6433;BME280;3249;42.690;23.260;2023-02-19T09:22:37;94758.34;;;13.11;48.63
6433;BME280;3249;42.690;23.260;2023-02-19T09:25:07;94753.41;;;13.21;48.55
6433;BME280;3249;42.690;23.260;2023-02-19T09:27:36;94738.28;;;13.24;48.78
6433;BME280;3249;42.690;23.260;2023-02-19T09:30:08;94756.06;;;13.44;48.58
6433;BME280;3249;42.690;23.260;2023-02-19T09:32:37;94752.25;;;13.46;48.87
6433;BME280;3249;42.690;23.260;2023-02-19T09:35:06;94741.91;;;13.46;48.21
6433;BME280;3249;42.690;23.260;2023-02-19T09:37:35;94753.16;;;13.52;47.81
6433;BME280;3249;42.690;23.260;2023-02-19T09:40:05;94746.53;;;13.56;47.67
6433;BME280;3249;42.690;23.260;2023-02-19T09:42:34;94754.66;;;13.59;46.62
6433;BME280;3249;42.690;23.260;2023-02-19T09:45:09;94747.34;;;13.56;45.23
6433;BME280;3249;42.690;23.260;2023-02-19T09:47:40;94736.94;;;13.45;45.31
6433;BME280;3249;42.690;23.260;2023-02-19T09:50:11;94742.50;;;13.60;44.96
6433;BME280;3249;42.690;23.260;2023-02-19T09:52:46;94732.50;;;13.75;43.62
6433;BME280;3249;42.690;23.260;2023-02-19T09:55:25;94727.09;;;13.88;42.27
6433;BME280;3249;42.690;23.260;2023-02-19T09:57:58;94719.13;;;14.01;41.20
6433;BME280;3249;42.690;23.260;2023-02-19T10:00:33;94716.31;;;14.14;41.20
6433;BME280;3249;42.690;23.260;2023-02-19T10:03:05;94707.88;;;13.84;41.65
6433;BME280;3249;42.690;23.260;2023-02-19T10:05:34;94695.16;;;14.06;41.56
6433;BME280;3249;42.690;23.260;2023-02-19T10:08:06;94705.28;;;14.19;40.76
6433;BME280;3249;42.690;23.260;2023-02-19T10:10:37;94703.00;;;14.45;40.00
6433;BME280;3249;42.690;23.260;2023-02-19T10:13:16;94679.97;;;14.09;40.00
6433;BME280;3249;42.690;23.260;2023-02-19T10:15:51;94682.44;;;14.04;40.33
6433;BME280;3249;42.690;23.260;2023-02-19T10:18:24;94646.41;;;14.14;39.70
6433;BME280;3249;42.690;23.260;2023-02-19T10:20:54;94681.72;;;14.43;39.70
6433;BME280;3249;42.690;23.260;2023-02-19T10:23:24;94661.16;;;14.25;39.47
6433;BME280;3249;42.690;23.260;2023-02-19T10:25:56;94617.84;;;14.09;39.51
6433;BME280;3249;42.690;23.260;2023-02-19T10:28:28;94673.13;;;14.54;38.97
6433;BME280;3249;42.690;23.260;2023-02-19T10:31:04;94654.66;;;14.23;39.56
6433;BME280;3249;42.690;23.260;2023-02-19T10:33:47;94655.63;;;14.33;39.70
6433;BME280;3249;42.690;23.260;2023-02-19T10:36:24;94619.03;;;14.30;39.44
6433;BME280;3249;42.690;23.260;2023-02-19T10:38:55;94643.94;;;14.59;38.61
6433;BME280;3249;42.690;23.260;2023-02-19T10:41:26;94634.44;;;14.64;38.49
6433;BME280;3249;42.690;23.260;2023-02-19T10:44:02;94627.59;;;14.30;38.50
6433;BME280;3249;42.690;23.260;2023-02-19T10:46:39;94621.31;;;14.54;39.29
6433;BME280;3249;42.690;23.260;2023-02-19T10:49:21;94611.22;;;14.69;38.45
6433;BME280;3249;42.690;23.260;2023-02-19T10:51:54;94616.03;;;14.77;38.77
6433;BME280;3249;42.690;23.260;2023-02-19T10:54:28;94586.03;;;14.81;37.80
6433;BME280;3249;42.690;23.260;2023-02-19T10:57:15;94611.50;;;15.01;38.08
6433;BME280;3249;42.690;23.260;2023-02-19T10:59:54;94608.59;;;15.14;36.47
6433;BME280;3249;42.690;23.260;2023-02-19T11:02:29;94597.94;;;15.27;36.22
6433;BME280;3249;42.690;23.260;2023-02-19T11:05:15;94592.25;;;15.30;35.92
6433;BME280;3249;42.690;23.260;2023-02-19T11:07:46;94584.00;;;15.33;35.37
6433;BME280;3249;42.690;23.260;2023-02-19T11:10:27;94580.00;;;15.25;35.39
6433;BME280;3249;42.690;23.260;2023-02-19T11:13:00;94583.84;;;15.39;35.36
6433;BME280;3249;42.690;23.260;2023-02-19T11:15:31;94581.34;;;15.44;35.35
6433;BME280;3249;42.690;23.260;2023-02-19T11:18:14;94573.00;;;15.42;35.45
6433;BME280;3249;42.690;23.260;2023-02-19T11:20:55;94544.41;;;15.37;35.11
6433;BME280;3249;42.690;23.260;2023-02-19T11:23:29;94565.44;;;15.57;34.67
6433;BME280;3249;42.690;23.260;2023-02-19T11:26:00;94543.97;;;15.62;34.50
6433;BME280;3249;42.690;23.260;2023-02-19T11:28:32;94560.94;;;15.69;34.21
6433;BME280;3249;42.690;23.260;2023-02-19T11:31:18;94554.94;;;15.69;33.71
6433;BME280;3249;42.690;23.260;2023-02-19T11:33:55;94532.81;;;15.61;33.91
6433;BME280;3249;42.690;23.260;2023-02-19T11:36:31;94533.66;;;15.67;34.33
6433;BME280;3249;42.690;23.260;2023-02-19T11:39:19;94530.47;;;15.81;33.63
6433;BME280;3249;42.690;23.260;2023-02-19T11:42:11;94521.41;;;15.84;33.78
6433;BME280;3249;42.690;23.260;2023-02-19T11:45:18;94505.88;;;15.89;33.43
6433;BME280;3249;42.690;23.260;2023-02-19T11:48:11;94513.66;;;16.10;33.14
6433;BME280;3249;42.690;23.260;2023-02-19T11:50:55;94515.31;;;16.21;33.18
6433;BME280;3249;42.690;23.260;2023-02-19T11:53:28;94454.94;;;15.83;32.64
6433;BME280;3249;42.690;23.260;2023-02-19T11:56:19;94442.47;;;15.85;32.73
6433;BME280;3249;42.690;23.260;2023-02-19T11:59:01;94518.75;;;16.27;31.55
6433;BME280;3249;42.690;23.260;2023-02-19T12:01:54;94494.66;;;16.31;32.08
6433;BME280;3249;42.690;23.260;2023-02-19T12:05:03;94481.03;;;16.19;31.23
6433;BME280;3249;42.690;23.260;2023-02-19T12:11:12;94494.03;;;16.46;31.29
6433;BME280;3249;42.690;23.260;2023-02-19T12:16:41;94467.16;;;16.62;30.95
6433;BME280;3249;42.690;23.260;2023-02-19T12:19:23;94457.03;;;16.65;30.76
6433;BME280;3249;42.690;23.260;2023-02-19T12:22:11;94445.75;;;16.50;30.33
6433;BME280;3249;42.690;23.260;2023-02-19T12:25:16;94447.31;;;16.51;30.01
6433;BME280;3249;42.690;23.260;2023-02-19T12:28:01;94468.00;;;16.72;29.91
6433;BME280;3249;42.690;23.260;2023-02-19T12:30:57;94447.47;;;16.71;30.08
6433;BME280;3249;42.690;23.260;2023-02-19T12:33:45;94442.50;;;16.69;29.88
6433;BME280;3249;42.690;23.260;2023-02-19T12:36:26;94449.31;;;16.75;30.14
6433;BME280;3249;42.690;23.260;2023-02-19T12:39:05;94446.19;;;16.78;29.89
6433;BME280;3249;42.690;23.260;2023-02-19T12:41:43;94439.69;;;16.76;29.74
6433;BME280;3249;42.690;23.260;2023-02-19T12:44:23;94440.00;;;16.79;29.59
6433;BME280;3249;42.690;23.260;2023-02-19T12:46:58;94417.00;;;16.66;29.66
6433;BME280;3249;42.690;23.260;2023-02-19T12:49:31;94406.78;;;16.55;30.62
6433;BME280;3249;42.690;23.260;2023-02-19T12:52:05;94410.78;;;16.67;29.73
6433;BME280;3249;42.690;23.260;2023-02-19T12:54:39;94385.34;;;16.74;30.15
6433;BME280;3249;42.690;23.260;2023-02-19T12:57:12;94406.47;;;16.83;29.55
6433;BME280;3249;42.690;23.260;2023-02-19T12:59:50;94383.28;;;16.76;29.59
6433;BME280;3249;42.690;23.260;2023-02-19T13:02:24;94387.47;;;16.82;29.49
6433;BME280;3249;42.690;23.260;2023-02-19T13:04:59;94385.69;;;16.88;29.11
6433;BME280;3249;42.690;23.260;2023-02-19T13:07:34;94370.31;;;16.81;29.27
6433;BME280;3249;42.690;23.260;2023-02-19T13:10:21;94384.69;;;16.94;29.42
6433;BME280;3249;42.690;23.260;2023-02-19T13:12:55;94378.44;;;16.95;29.27
6433;BME280;3249;42.690;23.260;2023-02-19T13:15:33;94379.50;;;16.94;29.14
6433;BME280;3249;42.690;23.260;2023-02-19T13:18:09;94365.94;;;16.92;29.63
6433;BME280;3249;42.690;23.260;2023-02-19T13:20:44;94337.22;;;16.72;29.80
6433;BME280;3249;42.690;23.260;2023-02-19T13:23:21;94347.97;;;16.90;29.56
6433;BME280;3249;42.690;23.260;2023-02-19T13:26:36;94359.28;;;17.11;29.20
6433;BME280;3249;42.690;23.260;2023-02-19T13:29:17;94340.75;;;16.97;29.24
6433;BME280;3249;42.690;23.260;2023-02-19T13:32:20;94279.78;;;16.68;29.11
6433;BME280;3249;42.690;23.260;2023-02-19T13:35:03;94352.28;;;17.16;28.97
6433;BME280;3249;42.690;23.260;2023-02-19T13:37:40;94326.28;;;17.26;28.52
6433;BME280;3249;42.690;23.260;2023-02-19T13:40:19;94335.94;;;17.36;28.47
6433;BME280;3249;42.690;23.260;2023-02-19T13:42:52;94332.06;;;17.38;28.85
6433;BME280;3249;42.690;23.260;2023-02-19T13:45:31;94331.53;;;17.36;28.93
6433;BME280;3249;42.690;23.260;2023-02-19T13:48:13;94334.13;;;17.36;28.95
6433;BME280;3249;42.690;23.260;2023-02-19T13:50:43;94331.53;;;17.36;28.96
6433;BME280;3249;42.690;23.260;2023-02-19T13:56:43;94321.56;;;17.13;29.09
6433;BME280;3249;42.690;23.260;2023-02-19T13:59:34;94322.06;;;17.10;29.37